LIRA Airport Information

Runway Information
Runway 15 Length 7242 ft width 154 ft
Elevation 341 ft Threshold 0 ft Heading 153
Runway 33 Length 7242 ft Width 154 ft
Elevation 427 ft Threshold 0 ft Heading 333
Airport Frequencies
Type ARR Name ROMA ARR Frequency 119.2 MHZ
Type CLD Name CLNC DEL Frequency 119.4 MHZ
Type DIR Name ROMA DIREC Frequency 119.2 MHZ
Type GND Name GND Frequency 121.75 MHZ
Type TWR Name TWR Frequency 120.5 MHZ
Airport Navaids
Type NDB Name Ciampino Frequency 412 KHZ
Type VOR-DME Name Roma Frequency 110800 KHZ
Airport Weather Information & NOTAM
ADDS - METARS form results

(1604 UTC 14 June 2021)
Data provider http://aviationweather.gov/metar/data/
 
METAR text: LIRA 141550Z 21006KT 170V270 CAVOK 26/19 Q1015
Conditions at: LIRA (CIAMPINO(IT-AFB/, IT) observed 1550 UTC 14 June 2021
Temperature: 26.0°C (79°F)
Dewpoint: 19.0°C (66°F) [RH = 65%]
Pressure (altimeter): 29.97 inches Hg (1015.0 mb)
Winds: from the SSW (210 degrees) at 7 MPH (6 knots; 3.1 m/s)
Visibility: 6 or more miles (10+ km)
Ceiling: ceiling and visibility are OK
Clouds: unknown
Weather: no significant weather observed at this time

METAR text: LIRA 141520Z 23005KT 130V270 9999 FEW040 26/17 Q1015
Conditions at: LIRA (CIAMPINO(IT-AFB/, IT) observed 1520 UTC 14 June 2021
Temperature: 26.0°C (79°F)
Dewpoint: 17.0°C (63°F) [RH = 58%]
Pressure (altimeter): 29.97 inches Hg (1015.0 mb)
Winds: from the SW (230 degrees) at 6 MPH (5 knots; 2.6 m/s)
Visibility: 6 or more miles (10+ km)
Ceiling: at least 12,000 feet AGL
Clouds: few clouds at 4000 feet AGL
Weather: no significant weather observed at this time

Forecast for: LIRA (CIAMPINO(IT-AFB/, IT)
Text: TAF LIRA 141100Z 1412/1512 20010KT CAVOK
Forecast period: 1200 to 1700 UTC 14 June 2021
Forecast type: FROM: standard forecast or significant change
Winds: from the SSW (200 degrees) at 12 MPH (10 knots; 5.1 m/s)
Visibility: 6 or more miles (10+ km)
Ceiling: unknown
Clouds: missing
Weather: NSW  (no significant weather)
Text: BECMG 1417/1419 VRB05KT
Forecast period: 1700 UTC 14 June 2021 to 0800 UTC 15 June 2021
Forecast type: BECOMING: Conditions expected to become as follows by 1900 UTC 14 June 2021
Winds: variable direction winds at 6 MPH (5 knots; 2.6 m/s)
Visibility: 6 or more miles (10+ km)
Ceiling: unknown
Clouds: missing
Weather: NSW  (no significant weather)
Text: BECMG 1508/1510 20010KT
Forecast period: 0800 to 1200 UTC 15 June 2021
Forecast type: BECOMING: Conditions expected to become as follows by 1000 UTC 15 June 2021
Winds: from the SSW (200 degrees) at 12 MPH (10 knots; 5.1 m/s)
Visibility: 6 or more miles (10+ km)
Ceiling: unknown
Clouds: missing
Weather: NSW  (no significant weather)